createdAt,value
2022-08-20T00:01:01.779Z,24.44
2022-08-20T00:01:59.063Z,24.55
2022-08-20T00:02:59.049Z,24.88
2022-08-20T00:03:55.695Z,24.59
2022-08-20T00:04:52.804Z,24.44
2022-08-20T00:05:56.637Z,24.58
2022-08-20T00:06:53.531Z,24.44
2022-08-20T00:07:50.288Z,24.44
2022-08-20T00:08:47.522Z,24.38
2022-08-20T00:09:45.262Z,24.31
2022-08-20T00:10:47.654Z,24.33
2022-08-20T00:11:49.183Z,24.33
2022-08-20T00:12:48.890Z,24.37
2022-08-20T00:13:51.870Z,24.53
2022-08-20T00:14:48.583Z,24.61
2022-08-20T00:15:46.636Z,24.50
2022-08-20T00:16:43.478Z,24.44
2022-08-20T00:17:41.588Z,24.63
2022-08-20T00:18:39.325Z,24.77
2022-08-20T00:19:36.095Z,24.63
2022-08-20T00:20:38.303Z,24.55
2022-08-20T00:21:36.636Z,24.43
2022-08-20T00:22:33.388Z,24.40
2022-08-20T00:23:30.037Z,24.32
2022-08-20T00:24:26.714Z,24.26
2022-08-20T00:25:24.894Z,24.25
2022-08-20T00:26:24.049Z,24.02
2022-08-20T00:27:20.703Z,24.23
2022-08-20T00:28:17.878Z,24.22
2022-08-20T00:29:16.073Z,24.24
2022-08-20T00:30:14.203Z,24.12
2022-08-20T00:31:14.175Z,23.64
2022-08-20T00:32:10.842Z,23.77
2022-08-20T00:33:25.989Z,23.58
2022-08-20T00:34:22.728Z,23.87
2022-08-20T00:35:23.256Z,24.20
2022-08-20T00:36:21.545Z,24.32
2022-08-20T00:37:18.267Z,24.05
2022-08-20T00:38:15.637Z,23.88
2022-08-20T00:39:12.386Z,24.00
2022-08-20T00:40:12.175Z,24.01
2022-08-20T00:41:26.326Z,24.02
2022-08-20T00:42:22.994Z,24.05
2022-08-20T00:43:25.671Z,24.21
2022-08-20T00:44:23.291Z,24.21
2022-08-20T00:45:21.259Z,24.16
2022-08-20T00:46:32.114Z,23.98
2022-08-20T00:47:28.903Z,23.91
2022-08-20T00:48:30.245Z,23.90
2022-08-20T00:49:31.856Z,23.73
2022-08-20T00:50:36.051Z,23.62
2022-08-20T00:51:41.061Z,23.42
2022-08-20T00:52:38.741Z,23.52
2022-08-20T00:53:37.849Z,23.49
2022-08-20T00:54:56.856Z,23.51
2022-08-20T00:55:53.571Z,23.47
2022-08-20T00:56:54.775Z,23.56
2022-08-20T00:58:01.348Z,23.58
2022-08-20T00:58:59.128Z,23.56
2022-08-20T00:59:58.604Z,23.54
2022-08-20T01:00:55.578Z,23.50
2022-08-20T01:01:56.201Z,23.45
2022-08-20T01:02:54.811Z,23.59
2022-08-20T01:03:56.708Z,23.60
2022-08-20T01:04:55.321Z,23.57
2022-08-20T01:05:52.793Z,23.43
2022-08-20T01:06:49.436Z,23.30
2022-08-20T01:07:46.211Z,23.44
2022-08-20T01:08:43.181Z,23.37
2022-08-20T01:09:57.485Z,23.30
2022-08-20T01:11:28.592Z,23.13
2022-08-20T01:12:33.918Z,23.23
2022-08-20T01:13:31.905Z,23.42
2022-08-20T01:14:38.947Z,23.58
2022-08-20T01:15:43.008Z,23.43
2022-08-20T01:16:40.635Z,23.43
2022-08-20T01:17:43.792Z,23.43
2022-08-20T01:18:40.567Z,23.43
2022-08-20T01:20:01.346Z,23.31
2022-08-20T01:21:02.274Z,23.30
2022-08-20T01:22:22.819Z,23.54
2022-08-20T01:23:41.697Z,23.56
2022-08-20T01:24:42.762Z,23.40
2022-08-20T01:25:57.394Z,23.33
2022-08-20T01:26:55.138Z,23.11
2022-08-20T01:27:55.122Z,23.23
2022-08-20T01:28:56.864Z,23.32
2022-08-20T01:29:54.331Z,23.49
2022-08-20T01:30:51.630Z,23.30
2022-08-20T01:31:48.871Z,23.53
2022-08-20T01:32:45.548Z,23.59
2022-08-20T01:33:42.691Z,23.73
2022-08-20T01:34:40.933Z,23.57
2022-08-20T01:35:40.699Z,23.54
2022-08-20T01:36:57.741Z,23.66
2022-08-20T01:37:55.115Z,23.68
2022-08-20T01:38:54.605Z,23.50
2022-08-20T01:39:51.610Z,23.32
2022-08-20T01:41:03.354Z,23.38
2022-08-20T01:42:21.800Z,23.60
2022-08-20T01:43:18.789Z,23.50
2022-08-20T01:44:20.127Z,23.51
2022-08-20T01:45:16.781Z,23.22
2022-08-20T01:46:16.056Z,23.31
2022-08-20T01:47:16.242Z,23.26
2022-08-20T01:48:14.127Z,23.20
2022-08-20T01:49:43.947Z,23.12
2022-08-20T01:50:44.767Z,23.17
2022-08-20T01:51:41.959Z,23.10
2022-08-20T01:52:55.040Z,23.14
2022-08-20T01:53:53.197Z,23.37
2022-08-20T01:54:49.845Z,23.46
2022-08-20T01:55:46.839Z,23.51
2022-08-20T01:57:12.118Z,23.62
2022-08-20T01:58:08.851Z,23.53
2022-08-20T01:59:07.216Z,23.60
2022-08-20T02:00:20.197Z,23.87
2022-08-20T02:01:24.745Z,23.85
2022-08-20T02:02:22.213Z,23.74
2022-08-20T02:03:18.964Z,23.39
2022-08-20T02:04:18.228Z,23.38
2022-08-20T02:05:15.320Z,23.47
2022-08-20T02:06:11.966Z,23.42
2022-08-20T02:07:14.268Z,23.43
2022-08-20T02:08:10.930Z,23.52
2022-08-20T02:09:13.181Z,23.58
2022-08-20T02:10:14.629Z,23.36
2022-08-20T02:11:13.033Z,23.30
2022-08-20T02:12:11.141Z,23.36
2022-08-20T02:13:10.133Z,23.37
2022-08-20T02:14:10.671Z,23.57
2022-08-20T02:15:10.642Z,23.46
2022-08-20T02:16:08.534Z,23.51
2022-08-20T02:17:07.193Z,23.42
2022-08-20T02:18:10.356Z,23.45
2022-08-20T02:19:12.671Z,23.50
2022-08-20T02:20:15.080Z,23.39
2022-08-20T02:21:11.632Z,23.59
2022-08-20T02:22:23.528Z,23.67
2022-08-20T02:23:21.007Z,23.60
2022-08-20T02:24:19.232Z,23.47
2022-08-20T02:25:17.107Z,23.69
2022-08-20T02:26:13.904Z,23.69
2022-08-20T02:27:10.901Z,23.44
2022-08-20T02:28:12.074Z,23.58
2022-08-20T02:29:11.157Z,23.67
2022-08-20T02:30:28.261Z,23.59
2022-08-20T02:31:25.739Z,23.75
2022-08-20T02:32:24.298Z,23.63
2022-08-20T02:33:30.029Z,23.40
2022-08-20T02:34:26.761Z,23.26
2022-08-20T02:35:24.316Z,23.24
2022-08-20T02:36:21.003Z,23.33
2022-08-20T02:37:18.562Z,23.11
2022-08-20T02:38:15.980Z,23.17
2022-08-20T02:39:13.251Z,23.30
2022-08-20T02:40:17.731Z,23.26
2022-08-20T02:41:24.147Z,23.13
2022-08-20T02:42:21.380Z,22.84
2022-08-20T02:43:19.426Z,22.93
2022-08-20T02:44:18.833Z,23.00
2022-08-20T02:45:18.995Z,22.99
2022-08-20T02:46:16.616Z,22.90
2022-08-20T02:47:13.766Z,22.91
2022-08-20T02:48:20.733Z,22.89
2022-08-20T02:49:18.024Z,22.99
2022-08-20T02:50:18.212Z,23.08
2022-08-20T02:51:15.177Z,23.19
2022-08-20T02:52:11.952Z,23.16
2022-08-20T02:53:08.639Z,22.97
2022-08-20T02:54:05.428Z,23.03
2022-08-20T02:55:02.255Z,22.99
2022-08-20T02:55:59.899Z,23.02
2022-08-20T02:56:56.728Z,22.84
2022-08-20T02:57:55.340Z,22.88
2022-08-20T02:58:55.400Z,22.75
2022-08-20T02:59:52.422Z,22.72
2022-08-20T03:00:49.717Z,22.74
2022-08-20T03:01:46.789Z,22.80
2022-08-20T03:02:56.511Z,22.65
2022-08-20T03:03:53.289Z,22.80
2022-08-20T03:04:49.883Z,22.80
2022-08-20T03:05:46.532Z,22.71
2022-08-20T03:06:43.275Z,22.59
2022-08-20T03:07:45.416Z,22.74
2022-08-20T03:08:42.890Z,23.01
2022-08-20T03:09:39.956Z,22.80
2022-08-20T03:10:38.513Z,22.70
2022-08-20T03:11:35.894Z,22.47
2022-08-20T03:12:33.049Z,22.85
2022-08-20T03:13:29.672Z,23.03
2022-08-20T03:14:26.333Z,22.72
2022-08-20T03:15:23.969Z,22.67
2022-08-20T03:16:20.904Z,22.45
2022-08-20T03:17:17.711Z,22.46
2022-08-20T03:18:16.357Z,22.32
2022-08-20T03:19:13.916Z,22.23
2022-08-20T03:20:11.412Z,22.16
2022-08-20T03:21:09.908Z,22.22
2022-08-20T03:22:07.153Z,22.14
2022-08-20T03:23:04.880Z,22.08
2022-08-20T03:24:01.642Z,22.09
2022-08-20T03:24:58.311Z,22.25
2022-08-20T03:25:55.035Z,22.09
2022-08-20T03:26:51.745Z,21.98
2022-08-20T03:27:53.991Z,21.96
2022-08-20T03:28:50.805Z,21.87
2022-08-20T03:29:47.449Z,21.79
2022-08-20T03:30:44.163Z,21.77
2022-08-20T03:31:40.818Z,21.61
2022-08-20T03:32:38.332Z,21.55
2022-08-20T03:33:35.816Z,21.67
2022-08-20T03:34:32.458Z,21.76
2022-08-20T03:35:31.406Z,21.92
2022-08-20T03:36:29.246Z,21.97
2022-08-20T03:37:30.196Z,21.99
2022-08-20T03:38:32.998Z,22.15
2022-08-20T03:39:30.170Z,21.99
2022-08-20T03:40:32.978Z,22.23
2022-08-20T03:41:29.724Z,22.19
2022-08-20T03:42:27.323Z,22.13
2022-08-20T03:43:24.750Z,22.19
2022-08-20T03:44:21.548Z,22.02
2022-08-20T03:45:20.616Z,22.11
2022-08-20T03:46:23.033Z,22.03
2022-08-20T03:47:21.141Z,22.16
2022-08-20T03:48:20.208Z,22.07
2022-08-20T03:49:17.209Z,22.17
2022-08-20T03:50:22.769Z,22.11
2022-08-20T03:51:19.988Z,22.19
2022-08-20T03:52:17.614Z,22.03
2022-08-20T03:53:15.003Z,22.17
2022-08-20T03:54:11.868Z,22.25
2022-08-20T03:55:10.452Z,22.30
2022-08-20T03:56:07.454Z,22.46
2022-08-20T03:57:12.451Z,22.48
2022-08-20T03:58:10.558Z,22.46
2022-08-20T03:59:07.228Z,22.41
2022-08-20T04:00:06.508Z,22.45
2022-08-20T04:01:06.084Z,22.49
2022-08-20T04:02:02.969Z,22.61
2022-08-20T04:03:00.891Z,22.55
2022-08-20T04:03:58.749Z,22.46
2022-08-20T04:04:55.467Z,22.55
2022-08-20T04:05:52.857Z,22.59
2022-08-20T04:06:49.468Z,22.59
2022-08-20T04:07:46.163Z,22.45
2022-08-20T04:08:43.188Z,22.46
2022-08-20T04:09:40.220Z,22.35
2022-08-20T04:10:37.547Z,22.64
2022-08-20T04:11:34.195Z,22.48
2022-08-20T04:12:30.812Z,22.41
2022-08-20T04:13:29.757Z,22.77
2022-08-20T04:14:27.167Z,22.90
2022-08-20T04:15:26.795Z,23.03
2022-08-20T04:16:23.444Z,23.05
2022-08-20T04:17:20.802Z,22.94
2022-08-20T04:18:20.631Z,23.01
2022-08-20T04:19:17.355Z,23.03
2022-08-20T04:20:19.118Z,23.17
2022-08-20T04:21:15.789Z,23.17
2022-08-20T04:22:13.917Z,22.99
2022-08-20T04:23:10.881Z,22.96
2022-08-20T04:24:07.679Z,22.98
2022-08-20T04:25:19.695Z,22.85
2022-08-20T04:26:22.406Z,22.73
2022-08-20T04:27:21.247Z,22.70
2022-08-20T04:28:30.257Z,22.71
2022-08-20T04:29:32.461Z,22.83
2022-08-20T04:30:29.621Z,22.92
2022-08-20T04:31:33.417Z,22.97
2022-08-20T04:32:30.760Z,22.93
2022-08-20T04:33:35.199Z,22.78
2022-08-20T04:34:32.329Z,22.74
2022-08-20T04:35:30.366Z,22.91
2022-08-20T04:36:27.355Z,22.96
2022-08-20T04:37:24.654Z,22.96
2022-08-20T04:38:22.787Z,22.91
2022-08-20T04:39:19.438Z,22.90
2022-08-20T04:40:37.142Z,22.85
2022-08-20T04:41:33.907Z,23.03
2022-08-20T04:42:30.555Z,23.04
2022-08-20T04:43:31.642Z,23.22
2022-08-20T04:44:28.796Z,23.19
2022-08-20T04:45:26.463Z,23.30
2022-08-20T04:46:25.833Z,23.44
2022-08-20T04:47:26.779Z,23.90
2022-08-20T04:48:32.746Z,23.83
2022-08-20T04:49:30.481Z,23.73
2022-08-20T04:50:27.283Z,23.70
2022-08-20T04:51:25.161Z,23.81
2022-08-20T04:52:23.598Z,23.93
2022-08-20T04:53:25.860Z,24.15
2022-08-20T04:54:22.646Z,24.24
2022-08-20T04:55:19.572Z,24.21
2022-08-20T04:56:16.357Z,24.21
2022-08-20T04:57:13.057Z,24.27
2022-08-20T04:58:18.327Z,24.35
2022-08-20T04:59:15.145Z,24.17
2022-08-20T05:00:16.994Z,24.26
2022-08-20T05:01:14.814Z,24.32
2022-08-20T05:02:12.446Z,24.34
2022-08-20T05:03:14.112Z,24.36
2022-08-20T05:04:10.780Z,24.53
2022-08-20T05:05:08.794Z,24.52
2022-08-20T05:06:08.205Z,24.39
2022-08-20T05:07:04.833Z,24.42
2022-08-20T05:08:02.196Z,24.43
2022-08-20T05:09:00.526Z,24.53
2022-08-20T05:09:57.144Z,24.47
2022-08-20T05:11:06.796Z,24.47
2022-08-20T05:12:12.330Z,24.46
2022-08-20T05:13:09.714Z,24.41
2022-08-20T05:14:08.966Z,24.56
2022-08-20T05:15:06.463Z,24.68
2022-08-20T05:16:04.854Z,24.69
2022-08-20T05:17:05.666Z,24.86
2022-08-20T05:18:03.987Z,24.91
2022-08-20T05:19:00.678Z,24.93
2022-08-20T05:19:59.460Z,24.95
2022-08-20T05:21:01.402Z,24.92
2022-08-20T05:21:58.243Z,24.94
2022-08-20T05:22:56.239Z,24.94
2022-08-20T05:23:52.875Z,24.95
2022-08-20T05:24:49.616Z,24.97
2022-08-20T05:25:51.671Z,25.04
2022-08-20T05:26:48.314Z,25.03
2022-08-20T05:27:47.825Z,25.24
2022-08-20T05:28:57.884Z,25.39
2022-08-20T05:30:07.410Z,25.26
2022-08-20T05:31:09.720Z,25.29
2022-08-20T05:32:06.582Z,25.33
2022-08-20T05:33:07.658Z,25.23
2022-08-20T05:34:11.050Z,25.36
2022-08-20T05:35:10.535Z,25.31
2022-08-20T05:36:07.754Z,25.57
2022-08-20T05:37:04.749Z,25.62
2022-08-20T05:38:06.130Z,25.62
2022-08-20T05:39:02.977Z,25.43
2022-08-20T05:39:59.737Z,25.45
2022-08-20T05:40:59.434Z,25.65
2022-08-20T05:41:57.954Z,25.54
2022-08-20T05:42:54.922Z,25.60
2022-08-20T05:43:51.693Z,25.88
2022-08-20T05:44:48.436Z,25.99
2022-08-20T05:45:46.359Z,25.93
2022-08-20T05:46:44.931Z,25.83
2022-08-20T05:47:42.838Z,25.82
2022-08-20T05:48:39.742Z,25.99
2022-08-20T05:49:38.445Z,26.07
2022-08-20T05:50:35.941Z,26.12
2022-08-20T05:51:33.130Z,26.25
2022-08-20T05:52:30.326Z,26.04
2022-08-20T05:53:27.377Z,26.13
2022-08-20T05:54:24.136Z,26.21
2022-08-20T05:55:21.028Z,26.22
2022-08-20T05:56:17.756Z,26.19
2022-08-20T05:57:19.514Z,26.18
2022-08-20T05:58:25.636Z,26.44
2022-08-20T05:59:24.205Z,26.30
2022-08-20T06:00:20.963Z,26.18
2022-08-20T06:01:17.645Z,26.23
2022-08-20T06:02:49.516Z,26.17
2022-08-20T06:04:04.506Z,26.44
2022-08-20T06:05:01.480Z,26.36
2022-08-20T06:05:58.296Z,26.36
2022-08-20T06:07:01.577Z,26.52
2022-08-20T06:08:07.357Z,26.62
2022-08-20T06:09:04.832Z,26.89
2022-08-20T06:10:02.229Z,26.81
2022-08-20T06:10:59.389Z,26.83
2022-08-20T06:11:59.063Z,26.83
2022-08-20T06:12:56.100Z,26.54
2022-08-20T06:13:52.861Z,26.53
2022-08-20T06:14:49.490Z,26.80
2022-08-20T06:15:46.230Z,26.72
2022-08-20T06:16:57.469Z,26.89
2022-08-20T06:17:58.503Z,27.00
2022-08-20T06:18:55.640Z,27.11
2022-08-20T06:19:55.432Z,26.92
2022-08-20T06:20:52.288Z,27.11
2022-08-20T06:21:49.002Z,27.00
2022-08-20T06:22:45.779Z,27.09
2022-08-20T06:23:56.427Z,27.40
2022-08-20T06:24:54.349Z,27.32
2022-08-20T06:25:51.532Z,27.52
2022-08-20T06:26:48.231Z,27.62
2022-08-20T06:27:44.914Z,27.67
2022-08-20T06:28:41.641Z,27.47
2022-08-20T06:29:38.353Z,27.32
2022-08-20T06:30:35.553Z,27.52
2022-08-20T06:31:32.830Z,27.71
2022-08-20T06:32:32.659Z,27.60
2022-08-20T06:33:29.591Z,27.64
2022-08-20T06:34:30.804Z,27.73
2022-08-20T06:42:21.211Z,28.04
2022-08-20T06:43:17.986Z,27.86
2022-08-20T06:44:15.283Z,27.98
2022-08-20T06:45:13.669Z,28.10
2022-08-20T06:46:10.735Z,28.21
2022-08-20T06:47:07.359Z,28.15
2022-08-20T06:48:08.851Z,28.01
2022-08-20T06:49:07.539Z,28.13
2022-08-20T06:50:08.540Z,28.08
2022-08-20T06:51:06.809Z,27.98
2022-08-20T06:52:05.352Z,28.32
2022-08-20T06:53:02.018Z,28.58
2022-08-20T06:53:58.767Z,28.63
2022-08-20T06:54:55.485Z,28.52
2022-08-20T06:55:54.623Z,28.35
2022-08-20T06:56:54.197Z,28.28
2022-08-20T06:58:01.773Z,28.28
2022-08-20T06:58:58.441Z,27.83
2022-08-20T06:59:55.388Z,27.87
2022-08-20T07:00:52.147Z,28.28
2022-08-20T07:01:51.557Z,28.58
2022-08-20T07:02:48.315Z,28.91
2022-08-20T07:03:55.331Z,28.69
2022-08-20T07:04:54.158Z,28.81
2022-08-20T07:05:50.955Z,28.69
2022-08-20T07:06:48.424Z,28.47
2022-08-20T07:07:49.684Z,28.45
2022-08-20T07:08:46.409Z,28.64
2022-08-20T07:09:43.886Z,28.59
2022-08-20T07:10:42.962Z,28.76
2022-08-20T07:11:39.648Z,28.89
2022-08-20T07:12:36.749Z,28.93
2022-08-20T07:13:33.611Z,28.67
2022-08-20T07:14:30.262Z,28.54
2022-08-20T07:15:27.719Z,28.68
2022-08-20T07:16:24.626Z,28.88
2022-08-20T07:17:24.108Z,28.93
2022-08-20T07:18:28.303Z,28.95
2022-08-20T07:19:25.784Z,29.28
2022-08-20T07:20:22.939Z,29.08
2022-08-20T07:21:19.686Z,29.06
2022-08-20T07:22:16.393Z,29.18
2022-08-20T07:23:13.103Z,29.53
2022-08-20T07:24:10.123Z,29.51
2022-08-20T07:25:10.178Z,29.64
2022-08-20T07:26:08.218Z,29.50
2022-08-20T07:27:05.350Z,29.33
2022-08-20T07:28:08.441Z,29.45
2022-08-20T07:29:05.318Z,29.67
2022-08-20T07:30:20.782Z,29.86
2022-08-20T07:31:36.156Z,29.60
2022-08-20T07:32:37.111Z,29.90
2022-08-20T07:33:39.530Z,29.67
2022-08-20T07:34:36.346Z,29.44
2022-08-20T07:35:33.636Z,29.56
2022-08-20T07:36:30.750Z,29.90
2022-08-20T07:37:27.619Z,29.43
2022-08-20T07:38:26.731Z,29.36
2022-08-20T07:39:23.390Z,29.78
2022-08-20T07:40:38.150Z,29.94
2022-08-20T07:41:34.875Z,29.73
2022-08-20T07:42:31.727Z,29.81
2022-08-20T07:43:29.401Z,29.68
2022-08-20T07:44:30.912Z,29.68
2022-08-20T07:45:28.863Z,29.68
2022-08-20T07:46:31.088Z,29.74
2022-08-20T07:47:28.185Z,29.73
2022-08-20T07:48:31.210Z,30.19
2022-08-20T07:49:28.730Z,30.32
2022-08-20T07:50:26.412Z,30.44
2022-08-20T07:51:23.730Z,30.52
2022-08-20T07:52:20.371Z,30.84
2022-08-20T07:53:17.075Z,30.76
2022-08-20T07:54:13.909Z,30.52
2022-08-20T07:55:13.183Z,30.46
2022-08-20T07:56:12.823Z,30.68
2022-08-20T07:57:12.197Z,30.78
2022-08-20T07:58:12.335Z,30.79
2022-08-20T07:59:08.945Z,30.71
2022-08-20T08:00:08.828Z,30.34
2022-08-20T08:01:06.945Z,30.23
2022-08-20T08:02:03.843Z,30.31
2022-08-20T08:03:00.487Z,30.02
2022-08-20T08:03:57.983Z,30.24
2022-08-20T08:04:55.483Z,30.33
2022-08-20T08:05:52.231Z,30.50
2022-08-20T08:06:48.908Z,30.92
2022-08-20T08:07:46.530Z,30.73
2022-08-20T08:08:43.728Z,31.08
2022-08-20T08:09:40.471Z,31.10
2022-08-20T08:10:38.594Z,31.34
2022-08-20T08:11:38.920Z,30.84
2022-08-20T08:12:40.338Z,31.36
2022-08-20T08:13:41.337Z,31.43
2022-08-20T08:14:38.749Z,31.58
2022-08-20T08:15:40.804Z,31.49
2022-08-20T08:16:39.259Z,31.25
2022-08-20T08:17:37.638Z,31.28
2022-08-20T08:18:41.745Z,31.13
2022-08-20T08:19:46.466Z,31.32
2022-08-20T08:20:46.881Z,31.40
2022-08-20T08:21:44.479Z,31.63
2022-08-20T08:22:43.126Z,31.44
2022-08-20T08:23:45.512Z,31.76
2022-08-20T08:24:56.912Z,31.79
2022-08-20T08:25:54.214Z,31.61
2022-08-20T08:26:52.626Z,31.08
2022-08-20T08:27:49.312Z,31.36
2022-08-20T08:28:46.750Z,31.63
2022-08-20T08:29:43.448Z,31.82
2022-08-20T08:30:42.752Z,31.83
2022-08-20T08:31:41.053Z,31.70
2022-08-20T08:32:58.735Z,31.81
2022-08-20T08:33:55.622Z,31.86
2022-08-20T08:34:52.586Z,31.81
2022-08-20T08:35:49.340Z,31.61
2022-08-20T08:36:46.035Z,31.88
2022-08-20T08:37:42.730Z,31.72
2022-08-20T08:38:42.983Z,31.89
2022-08-20T08:39:39.799Z,31.95
2022-08-20T08:40:36.574Z,31.87
2022-08-20T08:41:35.379Z,31.61
2022-08-20T08:42:32.124Z,31.65
2022-08-20T08:43:31.682Z,31.71
2022-08-20T08:44:34.407Z,31.63
2022-08-20T08:45:43.849Z,31.43
2022-08-20T08:46:44.567Z,31.23
2022-08-20T08:47:41.344Z,31.95
2022-08-20T08:48:45.546Z,31.79
2022-08-20T08:49:42.278Z,31.68
2022-08-20T08:50:53.288Z,31.85
2022-08-20T08:52:07.093Z,31.88
2022-08-20T08:53:06.002Z,31.67
2022-08-20T08:54:12.280Z,31.48
2022-08-20T08:55:12.919Z,31.68
2022-08-20T08:56:10.200Z,32.14
2022-08-20T08:57:09.466Z,31.79
2022-08-20T08:58:16.755Z,32.10
2022-08-20T08:59:14.209Z,32.15
2022-08-20T09:00:16.361Z,32.37
2022-08-20T09:01:54.451Z,31.93
2022-08-20T09:02:35.516Z,31.83
2022-08-20T09:03:36.530Z,31.89
2022-08-20T09:04:38.034Z,32.09
2022-08-20T09:05:44.276Z,32.08
2022-08-20T09:06:43.607Z,32.28
2022-08-20T09:07:49.736Z,32.49
2022-08-20T09:08:51.876Z,31.79
2022-08-20T09:09:48.562Z,32.26
2022-08-20T09:10:46.256Z,32.36
2022-08-20T09:11:47.230Z,32.19
2022-08-20T09:12:47.778Z,32.63
2022-08-20T09:13:45.083Z,32.98
2022-08-20T09:14:41.669Z,32.45
2022-08-20T09:15:38.497Z,32.73
2022-08-20T09:16:35.399Z,32.70
2022-08-20T09:17:50.193Z,32.17
2022-08-20T09:18:46.939Z,32.59
2022-08-20T09:19:44.033Z,32.25
2022-08-20T09:20:40.747Z,32.30
2022-08-20T09:21:37.404Z,32.61
2022-08-20T09:22:34.058Z,33.33
2022-08-20T09:23:31.106Z,33.32
2022-08-20T09:24:27.754Z,33.26
2022-08-20T09:25:24.693Z,33.27
2022-08-20T09:26:21.491Z,33.12
2022-08-20T09:27:18.727Z,32.80
2022-08-20T09:28:15.726Z,32.49
2022-08-20T09:29:12.744Z,32.32
2022-08-20T09:30:11.237Z,32.68
2022-08-20T09:31:08.028Z,32.79
2022-08-20T09:32:10.839Z,32.96
2022-08-20T09:33:07.475Z,32.25
2022-08-20T09:34:04.366Z,32.67
2022-08-20T09:35:01.097Z,33.14
2022-08-20T09:35:57.829Z,32.82
2022-08-20T09:36:54.489Z,32.87
2022-08-20T09:37:52.753Z,33.06
2022-08-20T09:38:49.716Z,33.10
2022-08-20T09:39:48.136Z,33.06
2022-08-20T09:40:44.882Z,32.44
2022-08-20T09:41:41.858Z,32.82
2022-08-20T09:42:41.639Z,33.02
2022-08-20T09:43:38.737Z,33.07
2022-08-20T09:44:35.511Z,33.49
2022-08-20T09:45:32.410Z,33.48
2022-08-20T09:46:29.174Z,33.60
2022-08-20T09:47:26.763Z,33.63
2022-08-20T09:48:32.114Z,33.80
2022-08-20T09:49:29.423Z,33.59
2022-08-20T09:50:28.388Z,33.70
2022-08-20T09:51:25.149Z,33.78
2022-08-20T09:52:26.025Z,33.54
2022-08-20T09:53:22.705Z,33.41
2022-08-20T09:54:21.345Z,33.21
2022-08-20T09:55:36.228Z,33.17
2022-08-20T09:56:35.800Z,33.49
2022-08-20T09:57:32.612Z,33.72
2022-08-20T09:58:57.249Z,33.37
2022-08-20T10:00:04.941Z,33.87
2022-08-20T10:01:13.629Z,33.92
2022-08-20T10:02:11.112Z,34.21
2022-08-20T10:03:07.880Z,33.65
2022-08-20T10:04:04.748Z,33.87
2022-08-20T10:05:01.403Z,34.35
2022-08-20T10:05:58.118Z,34.57
2022-08-20T10:06:54.967Z,33.77
2022-08-20T10:07:51.920Z,34.22
2022-08-20T10:08:49.593Z,34.05
2022-08-20T10:09:46.350Z,34.29
2022-08-20T10:10:42.990Z,34.53
2022-08-20T10:11:39.670Z,34.01
2022-08-20T10:12:36.363Z,34.22
2022-08-20T10:13:33.033Z,34.51
2022-08-20T10:14:29.787Z,34.39
2022-08-20T10:15:26.675Z,33.89
2022-08-20T10:16:23.369Z,33.92
2022-08-20T10:17:19.997Z,34.52
2022-08-20T10:18:16.780Z,34.81
2022-08-20T10:19:13.423Z,34.93
2022-08-20T10:20:12.314Z,35.20
2022-08-20T10:21:10.754Z,35.43
2022-08-20T10:22:07.468Z,34.89
2022-08-20T10:23:04.954Z,34.88
2022-08-20T10:24:01.814Z,34.57
2022-08-20T10:24:58.800Z,34.37
2022-08-20T10:25:55.517Z,34.54
2022-08-20T10:26:56.502Z,34.44
2022-08-20T10:27:53.183Z,34.78
2022-08-20T10:28:50.018Z,34.29
2022-08-20T10:29:47.144Z,34.03
2022-08-20T10:30:45.228Z,33.98
2022-08-20T10:31:42.699Z,34.19
2022-08-20T10:32:39.367Z,34.31
2022-08-20T10:33:36.829Z,34.61
2022-08-20T10:34:33.710Z,34.70
2022-08-20T10:35:30.455Z,34.81
2022-08-20T10:36:27.220Z,34.74
2022-08-20T10:37:25.728Z,34.96
2022-08-20T10:38:22.510Z,34.64
2022-08-20T10:39:19.257Z,35.00
2022-08-20T10:40:16.094Z,35.24
2022-08-20T10:41:12.938Z,35.00
2022-08-20T10:42:10.306Z,34.63
2022-08-20T10:43:07.092Z,34.54
2022-08-20T10:44:04.812Z,34.25
2022-08-20T10:45:01.587Z,34.81
2022-08-20T10:45:58.610Z,35.06
2022-08-20T10:46:57.185Z,35.59
2022-08-20T10:47:53.990Z,34.85
2022-08-20T10:48:50.780Z,35.14
2022-08-20T10:49:49.117Z,35.47
2022-08-20T10:50:45.915Z,35.10
2022-08-20T10:51:42.699Z,35.17
2022-08-20T10:52:39.315Z,35.13
2022-08-20T10:53:36.218Z,35.03
2022-08-20T10:54:33.036Z,34.65
2022-08-20T10:55:29.660Z,34.76
2022-08-20T10:56:26.342Z,34.81
2022-08-20T10:57:29.211Z,35.35
2022-08-20T10:58:26.463Z,35.33
2022-08-20T10:59:39.531Z,35.27
2022-08-20T11:00:36.684Z,35.04
2022-08-20T11:01:36.732Z,34.91
2022-08-20T11:02:33.666Z,34.45
2022-08-20T11:03:30.385Z,34.04
2022-08-20T11:04:27.096Z,34.48
2022-08-20T11:05:23.860Z,34.62
2022-08-20T11:06:20.507Z,34.90
2022-08-20T11:07:21.674Z,34.70
2022-08-20T11:08:38.365Z,35.48
2022-08-20T11:09:34.966Z,35.17
2022-08-20T11:10:34.115Z,34.93
2022-08-20T11:11:30.780Z,35.21
2022-08-20T11:12:27.918Z,35.56
2022-08-20T11:13:24.608Z,35.59
2022-08-20T11:14:23.074Z,34.95
2022-08-20T11:15:19.816Z,35.23
2022-08-20T11:16:16.482Z,35.60
2022-08-20T11:17:13.303Z,35.78
2022-08-20T11:18:10.944Z,35.83
2022-08-20T11:19:07.626Z,35.92
2022-08-20T11:20:07.016Z,36.43
2022-08-20T11:21:03.824Z,36.51
2022-08-20T11:22:00.490Z,35.99
2022-08-20T11:22:57.366Z,36.00
2022-08-20T11:23:54.039Z,35.95
2022-08-20T11:24:50.673Z,35.51
2022-08-20T11:25:48.295Z,35.35
2022-08-20T11:26:47.819Z,34.87
2022-08-20T11:27:48.132Z,34.71
2022-08-20T11:28:44.808Z,34.24
2022-08-20T11:29:41.439Z,34.36
2022-08-20T11:30:39.181Z,34.05
2022-08-20T11:31:35.866Z,34.37
2022-08-20T11:32:32.603Z,34.30
2022-08-20T11:33:29.614Z,34.25
2022-08-20T11:34:26.445Z,34.45
2022-08-20T11:35:42.124Z,34.36
2022-08-20T11:36:41.115Z,34.60
2022-08-20T11:37:38.201Z,34.51
2022-08-20T11:38:34.817Z,34.63
2022-08-20T11:39:31.500Z,35.09
2022-08-20T11:40:30.003Z,34.89
2022-08-20T11:41:27.415Z,34.79
2022-08-20T11:42:24.406Z,34.69
2022-08-20T11:43:21.087Z,35.07
2022-08-20T11:44:20.176Z,35.69
2022-08-20T11:45:18.386Z,36.18
2022-08-20T11:46:15.507Z,36.58
2022-08-20T11:47:22.181Z,36.27
2022-08-20T11:48:19.105Z,35.84
2022-08-20T11:49:15.919Z,35.78
2022-08-20T11:50:16.114Z,36.07
2022-08-20T11:51:16.333Z,36.49
2022-08-20T11:52:13.083Z,36.66
2022-08-20T11:53:10.054Z,36.58
2022-08-20T11:54:06.706Z,36.38
2022-08-20T11:55:06.964Z,35.89
2022-08-20T11:56:04.786Z,36.03
2022-08-20T11:57:01.487Z,36.00
2022-08-20T11:58:00.416Z,35.58
2022-08-20T11:58:57.362Z,35.63
2022-08-20T11:59:55.890Z,35.68
2022-08-20T12:00:52.554Z,35.78
2022-08-20T12:02:02.499Z,35.68
2022-08-20T12:03:00.974Z,35.46
2022-08-20T12:03:58.064Z,35.25
2022-08-20T12:04:55.027Z,35.12
2022-08-20T12:05:51.774Z,35.23
2022-08-20T12:06:48.467Z,35.24
2022-08-20T12:07:45.278Z,34.94
2022-08-20T12:08:42.095Z,34.62
2022-08-20T12:09:39.983Z,34.60
2022-08-20T12:10:40.205Z,34.75
2022-08-20T12:11:36.840Z,34.82
2022-08-20T12:12:33.700Z,34.78
2022-08-20T12:13:47.453Z,34.71
2022-08-20T12:14:45.230Z,34.76
2022-08-20T12:15:43.802Z,34.47
2022-08-20T12:16:40.480Z,34.34
2022-08-20T12:17:37.840Z,34.41
2022-08-20T12:18:34.555Z,34.23
2022-08-20T12:19:31.227Z,34.31
2022-08-20T12:20:28.086Z,34.52
2022-08-20T12:21:24.715Z,34.66
2022-08-20T12:22:25.292Z,34.75
2022-08-20T12:23:22.244Z,34.46
2022-08-20T12:24:19.037Z,34.59
2022-08-20T12:25:15.769Z,34.24
2022-08-20T12:26:12.493Z,34.03
2022-08-20T12:27:28.074Z,33.54
2022-08-20T12:28:25.837Z,34.14
2022-08-20T12:29:22.904Z,34.13
2022-08-20T12:30:22.582Z,33.88
2022-08-20T12:31:19.239Z,33.82
2022-08-20T12:32:16.063Z,33.91
2022-08-20T12:33:14.307Z,34.03
2022-08-20T12:34:11.147Z,34.19
2022-08-20T12:35:08.617Z,33.93
2022-08-20T12:36:06.083Z,33.91
2022-08-20T12:37:05.744Z,33.83
2022-08-20T12:38:04.794Z,33.77
2022-08-20T12:39:01.568Z,33.85
2022-08-20T12:40:00.056Z,33.86
2022-08-20T12:40:56.729Z,33.74
2022-08-20T12:41:53.351Z,33.72
2022-08-20T12:42:50.484Z,33.75
2022-08-20T12:43:47.192Z,33.79
2022-08-20T12:44:44.087Z,33.50
2022-08-20T12:45:40.770Z,33.65
2022-08-20T12:46:37.406Z,33.26
2022-08-20T12:47:36.800Z,33.24
2022-08-20T12:48:33.506Z,33.03
2022-08-20T12:49:30.201Z,33.02
2022-08-20T12:50:31.282Z,33.01
2022-08-20T12:51:28.359Z,33.07
2022-08-20T12:52:25.995Z,32.86